Grudziadz, Poland
Current Conditions -  °F | °C
As of 4:30 AM on Friday 21 Nov 2014 (Local Time) from EPBY Reporting Station
Light Snow Light Snow  
Wind Chill: 34°   Ceiling: 400
Heat Index: 34°   Visibility: 1.8mi
Dew Point: 34°   Wind: 0mph
Humidity: 100%   Direction: NA
Pressure: 30.3"   Gusts: NA
Location:  53.49°N, 18.75°E
Report Text: EPBY 210230Z 00000KT 3000 -RASN BR OVC004 01/01 Q1026
Loading
Personal Weather Stations






























Interactive Weather Map New forecast layout! Learn more

10-Day Weather Forecast

Advertisements
Track Severe Weather on mobile